createdAt,value
2018-02-20T00:00:38.159Z,-0.75
2018-02-20T00:01:44.573Z,-0.82
2018-02-20T00:02:50.762Z,-0.84
2018-02-20T00:03:56.706Z,-0.87
2018-02-20T00:05:02.856Z,-0.75
2018-02-20T00:06:09.111Z,-0.77
2018-02-20T00:07:15.288Z,-0.80
2018-02-20T00:08:21.477Z,-0.65
2018-02-20T00:09:27.715Z,-0.51
2018-02-20T00:10:33.962Z,-0.41
2018-02-20T00:11:40.206Z,-0.67
2018-02-20T00:12:46.441Z,-0.79
2018-02-20T00:13:52.373Z,-0.80
2018-02-20T00:14:58.564Z,-0.83
2018-02-20T00:16:04.956Z,-0.76
2018-02-20T00:17:11.312Z,-0.56
2018-02-20T00:18:17.464Z,-0.51
2018-02-20T00:19:23.609Z,-0.57
2018-02-20T00:20:29.807Z,-0.79
2018-02-20T00:21:36.018Z,-0.92
2018-02-20T00:22:42.169Z,-0.95
2018-02-20T00:23:48.333Z,-0.94
2018-02-20T00:24:54.535Z,-1.09
2018-02-20T00:26:00.781Z,-0.99
2018-02-20T00:27:07.082Z,-0.89
2018-02-20T00:28:13.010Z,-0.99
2018-02-20T00:29:19.581Z,-1.09
2018-02-20T00:30:25.780Z,-1.08
2018-02-20T00:31:32.051Z,-0.98
2018-02-20T00:32:38.267Z,-0.97
2018-02-20T00:33:44.098Z,-1.01
2018-02-20T00:34:50.376Z,-1.06
2018-02-20T00:35:56.571Z,-1.11
2018-02-20T00:37:02.704Z,-1.22
2018-02-20T00:38:08.895Z,-1.30
2018-02-20T00:39:15.053Z,-1.30
2018-02-20T00:40:20.924Z,-1.28
2018-02-20T00:41:27.474Z,-1.15
2018-02-20T00:42:33.709Z,-0.97
2018-02-20T00:43:39.862Z,-0.85
2018-02-20T00:44:46.123Z,-0.63
2018-02-20T00:45:52.320Z,-0.59
2018-02-20T00:46:58.233Z,-0.47
2018-02-20T00:48:04.443Z,-0.44
2018-02-20T00:49:10.628Z,-0.59
2018-02-20T00:50:16.780Z,-0.61
2018-02-20T00:51:22.955Z,-0.54
2018-02-20T00:52:34.306Z,-0.52
2018-02-20T00:53:40.539Z,-0.72
2018-02-20T00:54:46.697Z,-0.64
2018-02-20T00:55:52.873Z,-0.60
2018-02-20T00:56:58.694Z,-0.76
2018-02-20T00:58:04.988Z,-0.87
2018-02-20T00:59:12.851Z,-0.79
2018-02-20T01:00:19.639Z,-0.62
2018-02-20T01:01:27.177Z,-0.47
2018-02-20T01:02:36.234Z,-0.64
2018-02-20T01:03:42.434Z,-0.68
2018-02-20T01:04:48.621Z,-0.77
2018-02-20T01:05:54.814Z,-0.70
2018-02-20T01:07:01.055Z,-0.80
2018-02-20T01:08:07.305Z,-0.81
2018-02-20T01:09:13.467Z,-0.84
2018-02-20T01:10:19.378Z,-0.78
2018-02-20T01:11:25.304Z,-0.84
2018-02-20T01:12:31.470Z,-0.95
2018-02-20T01:13:37.394Z,-1.00
2018-02-20T01:14:43.650Z,-0.92
2018-02-20T01:15:49.927Z,-0.98
2018-02-20T01:17:01.265Z,-0.97
2018-02-20T01:18:07.492Z,-0.96
2018-02-20T01:19:13.778Z,-1.11
2018-02-20T01:20:19.950Z,-1.15
2018-02-20T01:21:30.068Z,-1.07
2018-02-20T01:22:36.359Z,-1.19
2018-02-20T01:23:42.520Z,-1.13
2018-02-20T01:24:48.748Z,-1.23
2018-02-20T01:25:54.901Z,-1.28
2018-02-20T01:27:01.102Z,-1.28
2018-02-20T01:28:07.076Z,-1.26
2018-02-20T01:29:13.302Z,-1.06
2018-02-20T01:30:20.473Z,-1.18
2018-02-20T01:31:26.908Z,-1.13
2018-02-20T01:32:33.078Z,-0.89
2018-02-20T01:33:39.263Z,-0.89
2018-02-20T01:34:45.432Z,-0.99
2018-02-20T01:35:51.660Z,-0.96
2018-02-20T01:36:57.869Z,-0.98
2018-02-20T01:38:04.053Z,-1.04
2018-02-20T01:39:10.234Z,-1.06
2018-02-20T01:40:16.402Z,-0.97
2018-02-20T01:41:22.604Z,-0.93
2018-02-20T01:42:28.754Z,-0.89
2018-02-20T01:43:34.917Z,-0.91
2018-02-20T01:44:41.036Z,-0.93
2018-02-20T01:45:47.222Z,-0.96
2018-02-20T01:46:53.069Z,-0.93
2018-02-20T01:47:59.528Z,-0.95
2018-02-20T01:49:05.693Z,-0.98
2018-02-20T01:50:11.833Z,-1.06
2018-02-20T01:51:17.981Z,-1.12
2018-02-20T01:52:24.105Z,-0.99
2018-02-20T01:53:30.021Z,-0.89
2018-02-20T01:54:36.246Z,-1.07
2018-02-20T01:55:42.432Z,-1.08
2018-02-20T01:56:48.572Z,-1.12
2018-02-20T01:57:54.722Z,-1.14
2018-02-20T01:59:00.947Z,-1.09
2018-02-20T02:00:07.076Z,-1.02
2018-02-20T02:01:12.983Z,-1.04
2018-02-20T02:02:19.115Z,-1.00
2018-02-20T02:03:25.012Z,-0.99
2018-02-20T02:04:31.196Z,-1.05
2018-02-20T02:05:37.426Z,-1.19
2018-02-20T02:06:43.328Z,-1.18
2018-02-20T02:07:49.521Z,-1.22
2018-02-20T02:08:55.472Z,-1.07
2018-02-20T02:10:01.655Z,-1.17
2018-02-20T02:11:07.848Z,-1.33
2018-02-20T02:12:13.986Z,-1.22
2018-02-20T02:13:20.491Z,-1.21
2018-02-20T02:14:26.657Z,-1.19
2018-02-20T02:15:36.858Z,-1.20
2018-02-20T02:16:43.048Z,-1.30
2018-02-20T02:17:49.275Z,-1.30
2018-02-20T02:18:55.443Z,-1.23
2018-02-20T02:20:01.669Z,-1.18
2018-02-20T02:21:07.858Z,-1.11
2018-02-20T02:22:14.014Z,-1.05
2018-02-20T02:23:19.897Z,-1.04
2018-02-20T02:24:26.057Z,-1.03
2018-02-20T02:25:32.954Z,-1.18
2018-02-20T02:26:39.174Z,-1.25
2018-02-20T02:27:45.342Z,-1.38
2018-02-20T02:28:51.550Z,-1.38
2018-02-20T02:29:57.743Z,-1.54
2018-02-20T02:31:03.657Z,-1.44
2018-02-20T02:32:09.918Z,-1.39
2018-02-20T02:33:16.095Z,-1.44
2018-02-20T02:34:22.246Z,-1.50
2018-02-20T02:35:28.431Z,-1.43
2018-02-20T02:36:34.731Z,-1.38
2018-02-20T02:37:40.931Z,-1.38
2018-02-20T02:38:47.173Z,-1.56
2018-02-20T02:39:53.372Z,-1.62
2018-02-20T02:40:59.554Z,-1.49
2018-02-20T02:42:08.618Z,-1.70
2018-02-20T02:43:14.841Z,-1.83
2018-02-20T02:44:21.095Z,-1.72
2018-02-20T02:45:27.243Z,-1.82
2018-02-20T02:46:33.424Z,-1.73
2018-02-20T02:47:39.366Z,-1.52
2018-02-20T02:48:45.631Z,-1.41
2018-02-20T02:49:51.875Z,-1.32
2018-02-20T02:50:58.112Z,-1.37
2018-02-20T02:52:04.312Z,-1.54
2018-02-20T02:53:10.189Z,-1.58
2018-02-20T02:54:16.347Z,-1.71
2018-02-20T02:55:22.525Z,-1.70
2018-02-20T02:56:28.755Z,-1.68
2018-02-20T02:57:34.942Z,-1.76
2018-02-20T02:58:41.143Z,-1.76
2018-02-20T02:59:50.910Z,-1.84
2018-02-20T03:00:57.088Z,-1.80
2018-02-20T03:02:03.271Z,-1.93
2018-02-20T03:03:09.472Z,-1.95
2018-02-20T03:04:15.658Z,-1.94
2018-02-20T03:05:21.794Z,-1.92
2018-02-20T03:06:28.877Z,-1.96
2018-02-20T03:07:34.828Z,-2.09
2018-02-20T03:08:40.760Z,-2.10
2018-02-20T03:09:46.966Z,-2.08
2018-02-20T03:10:53.134Z,-2.05
2018-02-20T03:11:59.294Z,-1.90
2018-02-20T03:13:05.519Z,-1.96
2018-02-20T03:14:11.718Z,-2.01
2018-02-20T03:15:18.769Z,-1.91
2018-02-20T03:16:24.972Z,-1.86
2018-02-20T03:17:30.931Z,-1.83
2018-02-20T03:18:37.165Z,-1.86
2018-02-20T03:19:43.070Z,-1.90
2018-02-20T03:20:49.280Z,-1.88
2018-02-20T03:21:55.478Z,-1.84
2018-02-20T03:23:01.678Z,-1.79
2018-02-20T03:24:07.841Z,-1.89
2018-02-20T03:25:14.006Z,-1.92
2018-02-20T03:26:20.194Z,-2.02
2018-02-20T03:27:26.408Z,-1.99
2018-02-20T03:28:32.588Z,-1.87
2018-02-20T03:29:38.802Z,-1.89
2018-02-20T03:30:44.945Z,-1.92
2018-02-20T03:31:51.099Z,-1.98
2018-02-20T03:32:57.304Z,-1.99
2018-02-20T03:34:03.428Z,-1.89
2018-02-20T03:35:09.646Z,-1.87
2018-02-20T03:36:15.872Z,-1.81
2018-02-20T03:37:22.053Z,-1.88
2018-02-20T03:38:28.274Z,-1.95
2018-02-20T03:39:34.875Z,-2.03
2018-02-20T03:40:41.150Z,-1.97
2018-02-20T03:41:47.311Z,-1.91
2018-02-20T03:42:53.487Z,-2.01
2018-02-20T03:43:59.677Z,-2.11
2018-02-20T03:45:10.994Z,-2.02
2018-02-20T03:46:17.229Z,-2.04
2018-02-20T03:47:23.414Z,-2.08
2018-02-20T03:48:29.964Z,-2.07
2018-02-20T03:49:36.658Z,-2.08
2018-02-20T03:50:42.946Z,-2.23
2018-02-20T03:51:49.161Z,-2.03
2018-02-20T03:52:59.341Z,-1.91
2018-02-20T03:54:05.531Z,-2.03
2018-02-20T03:55:11.436Z,-1.94
2018-02-20T03:56:17.705Z,-1.85
2018-02-20T03:57:23.908Z,-1.90
2018-02-20T03:58:30.117Z,-1.78
2018-02-20T03:59:36.308Z,-1.84
2018-02-20T04:00:42.569Z,-1.75
2018-02-20T04:01:48.787Z,-1.89
2018-02-20T04:02:55.033Z,-1.84
2018-02-20T04:04:01.239Z,-1.77
2018-02-20T04:05:07.437Z,-1.89
2018-02-20T04:06:13.637Z,-1.74
2018-02-20T04:07:19.807Z,-1.82
2018-02-20T04:08:26.044Z,-1.78
2018-02-20T04:09:32.763Z,-1.73
2018-02-20T04:10:40.071Z,-1.71
2018-02-20T04:11:47.440Z,-1.74
2018-02-20T04:12:54.370Z,-1.82
2018-02-20T04:14:01.897Z,-1.97
2018-02-20T04:15:08.987Z,-1.93
2018-02-20T04:16:19.411Z,-1.87
2018-02-20T04:17:27.460Z,-1.83
2018-02-20T04:18:34.823Z,-1.81
2018-02-20T04:19:42.288Z,-1.89
2018-02-20T04:20:48.972Z,-1.94
2018-02-20T04:21:55.363Z,-1.94
2018-02-20T04:23:02.447Z,-1.98
2018-02-20T04:24:12.324Z,-2.02
2018-02-20T04:25:19.260Z,-2.11
2018-02-20T04:26:26.610Z,-2.04
2018-02-20T04:27:34.358Z,-2.04
2018-02-20T04:28:42.091Z,-2.02
2018-02-20T04:29:49.025Z,-1.89
2018-02-20T04:30:56.153Z,-1.88
2018-02-20T04:32:03.388Z,-2.08
2018-02-20T04:33:11.713Z,-2.06
2018-02-20T04:34:18.568Z,-2.04
2018-02-20T04:35:25.170Z,-2.10
2018-02-20T04:36:32.282Z,-2.06
2018-02-20T04:37:39.392Z,-2.22
2018-02-20T04:38:47.184Z,-2.09
2018-02-20T04:39:54.444Z,-2.18
2018-02-20T04:41:02.463Z,-2.06
2018-02-20T04:42:09.525Z,-2.06
2018-02-20T04:43:16.225Z,-2.02
2018-02-20T04:44:22.533Z,-2.13
2018-02-20T04:45:28.777Z,-2.12
2018-02-20T04:46:35.974Z,-2.11
2018-02-20T04:47:42.445Z,-2.10
2018-02-20T04:48:48.655Z,-2.13
2018-02-20T04:49:54.841Z,-2.20
2018-02-20T04:51:01.656Z,-2.12
2018-02-20T04:52:09.001Z,-2.20
2018-02-20T04:53:15.287Z,-2.06
2018-02-20T04:54:22.977Z,-2.09
2018-02-20T04:55:30.680Z,-1.99
2018-02-20T04:56:37.304Z,-2.16
2018-02-20T04:57:43.463Z,-2.05
2018-02-20T04:58:49.676Z,-2.05
2018-02-20T04:59:55.835Z,-2.15
2018-02-20T05:01:02.025Z,-2.08
2018-02-20T05:02:08.224Z,-2.14
2018-02-20T05:03:14.439Z,-2.11
2018-02-20T05:04:20.616Z,-2.13
2018-02-20T05:05:26.776Z,-2.09
2018-02-20T05:06:33.033Z,-2.12
2018-02-20T05:07:39.270Z,-2.12
2018-02-20T05:08:45.652Z,-2.19
2018-02-20T05:09:54.781Z,-2.24
2018-02-20T05:11:00.975Z,-2.11
2018-02-20T05:12:07.201Z,-2.11
2018-02-20T05:13:13.393Z,-2.14
2018-02-20T05:14:19.740Z,-2.01
2018-02-20T05:15:25.945Z,-2.03
2018-02-20T05:16:32.113Z,-1.95
2018-02-20T05:17:38.259Z,-1.88
2018-02-20T05:18:44.458Z,-2.04
2018-02-20T05:19:50.386Z,-2.02
2018-02-20T05:20:56.810Z,-1.97
2018-02-20T05:22:03.151Z,-1.95
2018-02-20T05:23:09.683Z,-1.99
2018-02-20T05:24:15.895Z,-2.02
2018-02-20T05:25:22.077Z,-2.12
2018-02-20T05:26:28.281Z,-2.11
2018-02-20T05:27:34.761Z,-2.07
2018-02-20T05:28:41.135Z,-2.12
2018-02-20T05:29:47.957Z,-2.04
2018-02-20T05:30:53.852Z,-2.10
2018-02-20T05:31:59.985Z,-2.18
2018-02-20T05:33:06.171Z,-2.22
2018-02-20T05:34:12.338Z,-2.23
2018-02-20T05:35:18.610Z,-2.23
2018-02-20T05:36:24.924Z,-2.30
2018-02-20T05:37:31.156Z,-2.33
2018-02-20T05:38:37.357Z,-2.40
2018-02-20T05:39:43.592Z,-2.40
2018-02-20T05:40:49.805Z,-2.40
2018-02-20T05:41:55.996Z,-2.14
2018-02-20T05:43:02.309Z,-2.20
2018-02-20T05:44:08.481Z,-2.08
2018-02-20T05:45:14.685Z,-2.15
2018-02-20T05:46:20.852Z,-2.13
2018-02-20T05:47:27.133Z,-2.06
2018-02-20T05:48:33.334Z,-2.02
2018-02-20T05:49:39.629Z,-2.13
2018-02-20T05:50:45.861Z,-2.08
2018-02-20T05:51:52.006Z,-2.07
2018-02-20T05:52:58.196Z,-2.03
2018-02-20T05:54:04.328Z,-1.99
2018-02-20T05:55:10.512Z,-1.99
2018-02-20T05:56:16.675Z,-2.06
2018-02-20T05:57:22.819Z,-1.96
2018-02-20T05:58:28.999Z,-1.91
2018-02-20T05:59:35.197Z,-1.99
2018-02-20T06:00:41.377Z,-1.98
2018-02-20T06:01:47.380Z,-1.93
2018-02-20T06:02:53.587Z,-2.08
2018-02-20T06:03:59.745Z,-2.13
2018-02-20T06:05:05.614Z,-2.19
2018-02-20T06:06:11.817Z,-2.19
2018-02-20T06:07:18.006Z,-2.21
2018-02-20T06:08:24.201Z,-2.20
2018-02-20T06:09:30.400Z,-2.26
2018-02-20T06:10:36.583Z,-2.18
2018-02-20T06:11:42.889Z,-2.01
2018-02-20T06:12:49.099Z,-2.02
2018-02-20T06:13:55.272Z,-2.10
2018-02-20T06:15:01.472Z,-2.04
2018-02-20T06:16:07.622Z,-2.06
2018-02-20T06:17:13.764Z,-2.09
2018-02-20T06:18:19.881Z,-2.02
2018-02-20T06:19:25.791Z,-1.97
2018-02-20T06:20:31.972Z,-1.92
2018-02-20T06:21:37.940Z,-1.82
2018-02-20T06:22:44.203Z,-1.96
2018-02-20T06:23:50.371Z,-2.09
2018-02-20T06:24:56.516Z,-2.16
2018-02-20T06:26:03.312Z,-2.11
2018-02-20T06:27:10.109Z,-2.02
2018-02-20T06:28:16.285Z,-2.11
2018-02-20T06:29:22.452Z,-2.16
2018-02-20T06:30:28.896Z,-2.20
2018-02-20T06:31:35.310Z,-2.02
2018-02-20T06:32:43.480Z,-2.08
2018-02-20T06:33:49.620Z,-2.07
2018-02-20T06:34:55.795Z,-1.99
2018-02-20T06:36:01.924Z,-2.10
2018-02-20T06:37:08.326Z,-2.09
2018-02-20T06:38:14.442Z,-2.18
2018-02-20T06:39:24.704Z,-2.12
2018-02-20T06:40:30.908Z,-2.09
2018-02-20T06:41:37.110Z,-2.07
2018-02-20T06:42:43.256Z,-2.22
2018-02-20T06:43:49.408Z,-2.04
2018-02-20T06:44:55.615Z,-1.86
2018-02-20T06:46:01.799Z,-1.93
2018-02-20T06:47:07.982Z,-1.91
2018-02-20T06:48:13.800Z,-1.98
2018-02-20T06:49:19.999Z,-1.88
2018-02-20T06:50:26.168Z,-1.84
2018-02-20T06:51:32.354Z,-1.85
2018-02-20T06:52:38.544Z,-1.95
2018-02-20T06:53:44.686Z,-2.05
2018-02-20T06:54:50.832Z,-2.09
2018-02-20T06:55:57.044Z,-1.98
2018-02-20T06:57:03.202Z,-1.86
2018-02-20T06:58:09.366Z,-2.00
2018-02-20T06:59:15.554Z,-1.95
2018-02-20T07:00:21.755Z,-1.91
2018-02-20T07:01:27.964Z,-1.92
2018-02-20T07:02:34.249Z,-2.04
2018-02-20T07:03:40.747Z,-1.98
2018-02-20T07:04:46.924Z,-1.88
2018-02-20T07:05:53.094Z,-1.86
2018-02-20T07:06:59.225Z,-1.84
2018-02-20T07:08:05.831Z,-1.76
2018-02-20T07:09:12.101Z,-1.68
2018-02-20T07:10:18.821Z,-1.54
2018-02-20T07:11:24.979Z,-1.46
2018-02-20T07:12:31.181Z,-1.63
2018-02-20T07:13:37.369Z,-1.64
2018-02-20T07:14:43.352Z,-1.55
2018-02-20T07:15:49.775Z,-1.48
2018-02-20T07:16:55.955Z,-1.52
2018-02-20T07:18:02.124Z,-1.54
2018-02-20T07:19:08.275Z,-1.55
2018-02-20T07:20:14.531Z,-1.44
2018-02-20T07:21:20.733Z,-1.52
2018-02-20T07:22:26.892Z,-1.46
2018-02-20T07:23:35.069Z,-1.32
2018-02-20T07:24:41.260Z,-1.25
2018-02-20T07:25:47.403Z,-1.41
2018-02-20T07:26:53.572Z,-1.45
2018-02-20T07:27:59.749Z,-1.28
2018-02-20T07:29:05.913Z,-1.36
2018-02-20T07:30:12.063Z,-1.29
2018-02-20T07:31:23.340Z,-1.35
2018-02-20T07:32:29.566Z,-1.33
2018-02-20T07:33:35.733Z,-1.35
2018-02-20T07:34:41.981Z,-1.48
2018-02-20T07:35:48.132Z,-1.32
2018-02-20T07:36:54.425Z,-1.21
2018-02-20T07:38:00.577Z,-1.34
2018-02-20T07:39:06.764Z,-1.25
2018-02-20T07:40:13.354Z,-1.32
2018-02-20T07:41:27.589Z,-1.20
2018-02-20T07:42:33.757Z,-1.20
2018-02-20T07:43:39.923Z,-1.14
2018-02-20T07:44:50.033Z,-1.11
2018-02-20T07:45:56.264Z,-1.24
2018-02-20T07:47:02.654Z,-1.13
2018-02-20T07:48:08.491Z,-1.12
2018-02-20T07:49:14.714Z,-1.34
2018-02-20T07:50:20.878Z,-1.35
2018-02-20T07:51:27.054Z,-1.29
2018-02-20T07:52:33.292Z,-1.21
2018-02-20T07:53:39.347Z,-1.23
2018-02-20T07:54:45.537Z,-1.20
2018-02-20T07:55:51.944Z,-1.11
2018-02-20T07:56:58.181Z,-1.11
2018-02-20T07:58:04.372Z,-1.27
2018-02-20T07:59:10.494Z,-1.25
2018-02-20T08:00:16.671Z,-1.23
2018-02-20T08:01:22.529Z,-1.21
2018-02-20T08:02:28.745Z,-1.32
2018-02-20T08:03:34.999Z,-1.34
2018-02-20T08:04:41.309Z,-1.31
2018-02-20T08:05:47.125Z,-1.37
2018-02-20T08:06:53.253Z,-1.51
2018-02-20T08:07:59.487Z,-1.47
2018-02-20T08:09:05.006Z,-1.31
2018-02-20T08:10:11.147Z,-1.34
2018-02-20T08:11:17.352Z,-1.43
2018-02-20T08:12:23.471Z,-1.39
2018-02-20T08:13:29.649Z,-1.24
2018-02-20T08:14:35.490Z,-1.11
2018-02-20T08:15:41.670Z,-1.15
2018-02-20T08:16:47.841Z,-1.20
2018-02-20T08:17:54.023Z,-1.34
2018-02-20T08:19:00.158Z,-1.23
2018-02-20T08:20:10.246Z,-1.22
2018-02-20T08:21:16.471Z,-1.08
2018-02-20T08:22:22.629Z,-0.97
2018-02-20T08:23:28.760Z,-0.95
2018-02-20T08:24:34.919Z,-0.99
2018-02-20T08:25:41.129Z,-0.89
2018-02-20T08:26:47.327Z,-0.80
2018-02-20T08:27:54.345Z,-0.96
2018-02-20T08:29:00.524Z,-0.89
2018-02-20T08:30:06.690Z,-1.16
2018-02-20T08:31:12.813Z,-1.04
2018-02-20T08:32:19.182Z,-0.97
2018-02-20T08:33:25.349Z,-0.89
2018-02-20T08:34:31.519Z,-0.87
2018-02-20T08:35:37.651Z,-0.93
2018-02-20T08:36:43.792Z,-0.86
2018-02-20T08:37:50.000Z,-0.83
2018-02-20T08:38:56.229Z,-0.81
2018-02-20T08:40:02.412Z,-0.81
2018-02-20T08:41:08.624Z,-0.81
2018-02-20T08:42:14.786Z,-0.71
2018-02-20T08:43:20.914Z,-0.94
2018-02-20T08:44:27.072Z,-0.91
2018-02-20T08:45:33.294Z,-0.86
2018-02-20T08:46:39.486Z,-0.83
2018-02-20T08:47:45.620Z,-0.68
2018-02-20T08:48:51.901Z,-0.69
2018-02-20T08:49:57.811Z,-0.58
2018-02-20T08:51:03.721Z,-0.47
2018-02-20T08:52:09.919Z,-0.44
2018-02-20T08:53:16.127Z,-0.36
2018-02-20T08:54:22.273Z,-0.22
2018-02-20T08:55:28.453Z,-0.36
2018-02-20T08:56:34.625Z,-0.34
2018-02-20T08:57:40.895Z,-0.47
2018-02-20T08:58:47.029Z,-0.24
2018-02-20T08:59:53.207Z,-0.03
2018-02-20T09:00:59.333Z,0.07
2018-02-20T09:02:05.189Z,0.17
2018-02-20T09:03:10.716Z,0.21
2018-02-20T09:04:16.953Z,0.28
2018-02-20T09:05:23.107Z,0.36
2018-02-20T09:06:29.277Z,0.16
2018-02-20T09:07:35.505Z,0.10
2018-02-20T09:08:41.707Z,0.15
2018-02-20T09:09:47.926Z,0.30
2018-02-20T09:10:54.878Z,0.29
2018-02-20T09:12:00.999Z,-0.02
2018-02-20T09:13:07.151Z,0.03
2018-02-20T09:14:13.314Z,-0.25
2018-02-20T09:15:19.535Z,-0.13
2018-02-20T09:16:25.783Z,0.05
2018-02-20T09:17:34.913Z,0.00
2018-02-20T09:18:41.151Z,0.11
2018-02-20T09:19:47.557Z,0.17
2018-02-20T09:20:53.742Z,0.23
2018-02-20T09:21:59.982Z,0.13
2018-02-20T09:23:06.207Z,0.13
2018-02-20T09:24:12.331Z,0.28
2018-02-20T09:25:18.442Z,0.02
2018-02-20T09:26:24.600Z,-0.05
2018-02-20T09:27:30.861Z,0.20
2018-02-20T09:28:37.085Z,0.17
2018-02-20T09:29:43.347Z,0.28
2018-02-20T09:30:49.504Z,0.18
2018-02-20T09:31:55.631Z,-0.03
2018-02-20T09:33:01.758Z,-0.08
2018-02-20T09:34:07.976Z,0.12
2018-02-20T09:35:14.156Z,0.29
2018-02-20T09:36:20.293Z,0.30
2018-02-20T09:37:26.480Z,0.08
2018-02-20T09:38:32.650Z,0.29
2018-02-20T09:39:38.843Z,0.35
2018-02-20T09:40:48.000Z,0.09
2018-02-20T09:41:54.122Z,0.24
2018-02-20T09:43:00.042Z,0.31
2018-02-20T09:44:06.292Z,0.55
2018-02-20T09:45:12.506Z,0.67
2018-02-20T09:46:18.474Z,0.84
2018-02-20T09:47:24.733Z,0.87
2018-02-20T09:48:30.904Z,1.13
2018-02-20T09:49:37.051Z,1.22
2018-02-20T09:50:43.254Z,1.09
2018-02-20T09:51:49.425Z,1.14
2018-02-20T09:52:55.595Z,0.99
2018-02-20T09:54:01.731Z,1.06
2018-02-20T09:55:07.905Z,1.06
2018-02-20T09:56:14.086Z,1.28
2018-02-20T09:57:20.250Z,1.20
2018-02-20T09:58:26.421Z,1.35
2018-02-20T09:59:32.618Z,1.04
2018-02-20T10:00:39.049Z,0.88
2018-02-20T10:01:45.228Z,1.23
2018-02-20T10:02:51.428Z,1.29
2018-02-20T10:03:57.599Z,1.29
2018-02-20T10:05:03.755Z,1.21
2018-02-20T10:06:09.769Z,1.08
2018-02-20T10:07:15.902Z,0.96
2018-02-20T10:08:22.058Z,1.14
2018-02-20T10:09:28.253Z,1.31
2018-02-20T10:10:34.454Z,1.44
2018-02-20T10:11:40.618Z,1.42
2018-02-20T10:12:46.512Z,1.19
2018-02-20T10:13:52.635Z,1.23
2018-02-20T10:14:58.867Z,0.97
2018-02-20T10:16:05.049Z,1.09
2018-02-20T10:17:11.188Z,1.24
2018-02-20T10:18:17.344Z,1.28
2018-02-20T10:19:23.497Z,1.27
2018-02-20T10:20:29.694Z,1.38
2018-02-20T10:21:35.927Z,1.40
2018-02-20T10:22:42.132Z,1.27
2018-02-20T10:23:48.288Z,1.48
2018-02-20T10:24:54.452Z,1.19
2018-02-20T10:26:00.609Z,0.98
2018-02-20T10:27:06.567Z,1.04
2018-02-20T10:28:12.829Z,1.24
2018-02-20T10:29:19.056Z,1.32
2018-02-20T10:30:25.206Z,1.38
2018-02-20T10:31:31.386Z,1.46
2018-02-20T10:32:37.562Z,1.42
2018-02-20T10:33:44.000Z,1.62
2018-02-20T10:34:50.192Z,1.59
2018-02-20T10:35:56.373Z,1.65
2018-02-20T10:37:02.540Z,1.49
2018-02-20T10:38:08.697Z,1.70
2018-02-20T10:39:15.137Z,1.90
2018-02-20T10:40:21.338Z,1.91
2018-02-20T10:41:27.509Z,1.75
2018-02-20T10:42:33.678Z,1.70
2018-02-20T10:43:39.876Z,1.64
2018-02-20T10:44:46.004Z,1.68
2018-02-20T10:45:52.180Z,1.98
2018-02-20T10:46:58.341Z,2.27
2018-02-20T10:48:03.809Z,2.45
2018-02-20T10:49:09.997Z,1.95
2018-02-20T10:50:16.576Z,2.13
2018-02-20T10:51:22.747Z,2.24
2018-02-20T10:52:28.948Z,2.17
2018-02-20T10:53:35.230Z,2.27
2018-02-20T10:54:41.443Z,2.30
2018-02-20T10:55:47.588Z,2.25
2018-02-20T10:56:53.777Z,2.21
2018-02-20T10:58:00.050Z,2.35
2018-02-20T10:59:06.212Z,2.36
2018-02-20T11:00:12.436Z,2.25
2018-02-20T11:01:20.435Z,2.14
2018-02-20T11:02:26.568Z,1.92
2018-02-20T11:03:32.977Z,1.85
2018-02-20T11:04:39.166Z,1.71
2018-02-20T11:05:45.544Z,1.49
2018-02-20T11:06:51.327Z,1.54
2018-02-20T11:07:58.413Z,1.65
2018-02-20T11:09:03.924Z,1.57
2018-02-20T11:10:10.569Z,1.53
2018-02-20T11:11:16.922Z,1.73
2018-02-20T11:12:22.732Z,1.67
2018-02-20T11:13:28.928Z,1.71
2018-02-20T11:14:35.076Z,1.73
2018-02-20T11:15:41.219Z,1.64
2018-02-20T11:16:47.435Z,1.64
2018-02-20T11:17:53.595Z,1.61
2018-02-20T11:18:59.713Z,1.67
2018-02-20T11:20:06.879Z,1.51
2018-02-20T11:21:13.067Z,1.50
2018-02-20T11:22:18.936Z,1.52
2018-02-20T11:23:24.841Z,1.66
2018-02-20T11:24:31.039Z,1.86
2018-02-20T11:25:37.194Z,1.83
2018-02-20T11:26:43.374Z,1.70
2018-02-20T11:27:49.505Z,1.67
2018-02-20T11:28:55.698Z,1.54
2018-02-20T11:30:01.838Z,1.65
2018-02-20T11:31:07.996Z,1.81
2018-02-20T11:32:14.158Z,1.99
2018-02-20T11:33:20.348Z,2.15
2018-02-20T11:34:26.464Z,1.97
2018-02-20T11:35:32.332Z,1.88
2018-02-20T11:36:38.510Z,1.89
2018-02-20T11:37:44.321Z,1.84
2018-02-20T11:38:50.481Z,1.88
2018-02-20T11:39:56.684Z,1.99
2018-02-20T11:41:02.849Z,1.61
2018-02-20T11:42:09.049Z,1.54
2018-02-20T11:43:15.192Z,1.51
2018-02-20T11:44:21.336Z,1.54
2018-02-20T11:45:27.528Z,1.70
2018-02-20T11:46:33.709Z,1.86
2018-02-20T11:47:39.908Z,2.02
2018-02-20T11:48:46.068Z,1.85
2018-02-20T11:49:52.194Z,1.95
2018-02-20T11:50:58.415Z,1.80
2018-02-20T11:52:04.609Z,1.66
2018-02-20T11:53:10.820Z,1.77
2018-02-20T11:54:17.042Z,1.79
2018-02-20T11:55:23.237Z,1.61
2018-02-20T11:56:29.388Z,1.74
2018-02-20T11:57:35.667Z,1.72
2018-02-20T11:58:41.861Z,1.72
2018-02-20T11:59:47.996Z,1.83
2018-02-20T12:00:54.175Z,1.89
2018-02-20T12:02:00.340Z,1.91
2018-02-20T12:03:06.480Z,1.96
2018-02-20T12:04:12.638Z,2.05
2018-02-20T12:05:18.837Z,2.03
2018-02-20T12:06:25.092Z,1.89
2018-02-20T12:07:36.431Z,1.97
2018-02-20T12:08:42.603Z,1.94
2018-02-20T12:09:48.826Z,2.07
2018-02-20T12:10:54.978Z,2.16
2018-02-20T12:12:01.183Z,2.06
2018-02-20T12:13:07.344Z,2.06
2018-02-20T12:14:13.500Z,1.96
2018-02-20T12:15:19.717Z,1.92
2018-02-20T12:16:25.901Z,1.90
2018-02-20T12:17:32.109Z,2.05
2018-02-20T12:18:38.262Z,2.06
2018-02-20T12:19:48.180Z,2.13
2018-02-20T12:20:54.295Z,2.06
2018-02-20T12:22:07.277Z,2.13
2018-02-20T12:23:13.407Z,2.09
2018-02-20T12:24:19.584Z,2.05
2018-02-20T12:25:25.729Z,2.10
2018-02-20T12:26:31.896Z,2.17
2018-02-20T12:27:38.033Z,2.10
2018-02-20T12:28:44.212Z,2.10
2018-02-20T12:29:50.408Z,2.12
2018-02-20T12:30:56.560Z,2.07
2018-02-20T12:32:02.756Z,2.03
2018-02-20T12:33:08.915Z,2.02
2018-02-20T12:34:15.081Z,2.00
2018-02-20T12:35:21.320Z,2.04
2018-02-20T12:36:27.602Z,2.03
2018-02-20T12:37:33.759Z,2.10
2018-02-20T12:38:39.930Z,2.05
2018-02-20T12:39:46.081Z,2.01
2018-02-20T12:40:52.245Z,2.13
2018-02-20T12:41:58.096Z,2.11
2018-02-20T12:43:04.283Z,2.06
2018-02-20T12:44:10.482Z,2.10
2018-02-20T12:45:16.889Z,2.22
2018-02-20T12:46:23.192Z,2.17
2018-02-20T12:47:29.417Z,2.11
2018-02-20T12:48:35.299Z,2.21
2018-02-20T12:49:41.456Z,2.33
2018-02-20T12:50:47.673Z,2.35
2018-02-20T12:51:53.860Z,2.39
2018-02-20T12:53:00.016Z,2.40
2018-02-20T12:54:07.064Z,2.40
2018-02-20T12:55:12.964Z,2.34
2018-02-20T12:56:18.867Z,2.07
2018-02-20T12:57:24.836Z,2.26
2018-02-20T12:58:31.045Z,2.34
2018-02-20T12:59:37.265Z,2.39
2018-02-20T13:00:43.480Z,2.42
2018-02-20T13:01:49.702Z,2.53
2018-02-20T13:02:55.887Z,2.56
2018-02-20T13:04:02.055Z,2.54
2018-02-20T13:05:08.302Z,2.48
2018-02-20T13:06:14.716Z,2.46
2018-02-20T13:07:20.892Z,2.40
2018-02-20T13:08:27.069Z,2.46
2018-02-20T13:09:33.065Z,2.49
2018-02-20T13:10:39.298Z,2.29
2018-02-20T13:11:45.555Z,2.46
2018-02-20T13:12:51.730Z,2.45
2018-02-20T13:13:57.938Z,2.39
2018-02-20T13:15:04.115Z,2.50
2018-02-20T13:16:15.738Z,2.68
2018-02-20T13:17:21.931Z,2.80
2018-02-20T13:18:28.211Z,2.59
2018-02-20T13:19:34.445Z,2.62
2018-02-20T13:20:40.606Z,2.45
2018-02-20T13:21:46.764Z,2.49
2018-02-20T13:22:52.880Z,2.54
2018-02-20T13:23:59.089Z,2.44
2018-02-20T13:25:04.562Z,2.55
2018-02-20T13:26:10.746Z,2.63
2018-02-20T13:27:17.016Z,2.45
2018-02-20T13:28:23.192Z,2.45
2018-02-20T13:29:29.303Z,2.43
2018-02-20T13:30:35.542Z,2.34
2018-02-20T13:31:41.954Z,2.49
2018-02-20T13:32:48.361Z,2.61
2018-02-20T13:33:54.570Z,2.53
2018-02-20T13:35:00.826Z,2.56
2018-02-20T13:36:07.053Z,2.64
2018-02-20T13:37:13.068Z,2.64
2018-02-20T13:38:19.279Z,2.51
2018-02-20T13:39:25.424Z,2.54
2018-02-20T13:40:31.664Z,2.51
2018-02-20T13:41:37.857Z,2.54
2018-02-20T13:42:44.039Z,2.59
2018-02-20T13:43:50.160Z,2.67
2018-02-20T13:44:56.340Z,2.68
2018-02-20T13:46:02.762Z,2.61
2018-02-20T13:47:09.003Z,2.73
2018-02-20T13:48:15.213Z,2.72
2018-02-20T13:49:21.368Z,2.70
2018-02-20T13:50:27.553Z,2.70
2018-02-20T13:51:37.465Z,2.46
2018-02-20T13:52:43.684Z,2.50
2018-02-20T13:53:50.341Z,2.60
2018-02-20T13:54:56.582Z,2.56
2018-02-20T13:56:02.769Z,2.61
2018-02-20T13:57:08.964Z,2.57
2018-02-20T13:58:15.168Z,2.57
2018-02-20T13:59:21.316Z,2.36
2018-02-20T14:00:27.466Z,2.42
2018-02-20T14:01:33.641Z,2.53
2018-02-20T14:02:39.825Z,2.48
2018-02-20T14:03:51.025Z,2.48
2018-02-20T14:04:57.223Z,2.48
2018-02-20T14:06:03.375Z,2.52
2018-02-20T14:07:09.534Z,2.51
2018-02-20T14:08:15.686Z,2.54
2018-02-20T14:09:21.902Z,2.61
2018-02-20T14:10:28.144Z,2.60
2018-02-20T14:11:34.284Z,2.65
2018-02-20T14:12:40.493Z,2.65
2018-02-20T14:13:46.617Z,2.74
2018-02-20T14:14:52.776Z,2.84
2018-02-20T14:15:58.971Z,2.91
2018-02-20T14:17:05.169Z,2.92
2018-02-20T14:18:11.345Z,2.86
2018-02-20T14:19:17.288Z,2.91
2018-02-20T14:20:23.559Z,2.87
2018-02-20T14:21:29.836Z,2.81
2018-02-20T14:22:36.052Z,2.91
2018-02-20T14:23:42.192Z,3.04
2018-02-20T14:24:48.409Z,2.89
2018-02-20T14:25:54.633Z,2.94